Time;durP1;ratioP1;P1;durP2;ratioP2;P2;SDS_P1;SDS_P2;PMS_P1;PMS_P2;Temp;Humidity;BMP_temperature;BMP_pressure;BME280_temperature;BME280_humidity;BME280_pressure;Samples;Min_cycle;Max_cycle;Signal;HPM_P1;HPM_P2
2021/08/16 00:02:34;;;;;;;18.13;4.95;;;25.30;64.60;;;;;;5051046;28;20048;-68
2021/08/16 00:05:38;;;;;;;32.40;6.32;;;25.30;64.40;;;;;;5051067;28;20052;-68
2021/08/16 00:08:43;;;;;;;29.25;5.60;;;25.30;64.10;;;;;;5050202;28;20048;-68
2021/08/16 00:11:47;;;;;;;24.80;6.68;;;25.20;64.10;;;;;;5061447;28;20119;-68
2021/08/16 00:14:51;;;;;;;32.63;5.65;;;25.20;64.60;;;;;;5050604;28;20510;-68
2021/08/16 00:17:59;;;;;;;25.77;6.20;;;25.20;64.90;;;;;;5042636;28;20049;-67
2021/08/16 00:21:03;;;;;;;30.10;6.10;;;25.30;65.30;;;;;;5039552;28;20507;-68
2021/08/16 00:24:07;;;;;;;31.13;4.97;;;25.40;65.30;;;;;;5048513;28;20051;-68
2021/08/16 00:27:12;;;;;;;33.78;6.82;;;25.50;65.60;;;;;;5060847;28;20043;-68
2021/08/16 00:30:16;;;;;;;26.98;5.75;;;25.40;65.40;;;;;;5050724;28;20399;-67
2021/08/16 00:33:20;;;;;;;25.02;5.93;;;25.20;65.10;;;;;;5050413;28;20056;-67
2021/08/16 00:36:25;;;;;;;30.98;6.45;;;25.10;65.30;;;;;;5050447;28;20036;-67
2021/08/16 00:39:29;;;;;;;23.52;5.43;;;25.10;65.00;;;;;;5050005;28;20051;-67
2021/08/16 00:42:35;;;;;;;25.00;5.03;;;24.90;65.40;;;;;;5050204;28;20048;-68
2021/08/16 00:45:39;;;;;;;25.02;6.22;;;24.80;65.50;;;;;;5050253;28;20051;-68
2021/08/16 00:48:43;;;;;;;29.13;5.63;;;24.70;65.30;;;;;;5049497;28;20043;-68
2021/08/16 00:51:47;;;;;;;31.80;6.55;;;24.60;65.70;;;;;;5050269;28;20048;-68
2021/08/16 00:54:52;;;;;;;21.75;4.90;;;24.60;65.90;;;;;;5030317;28;20048;-68
2021/08/16 00:57:58;;;;;;;28.17;5.85;;;24.70;65.00;;;;;;5029587;28;20391;-67
2021/08/16 01:01:03;;;;;;;40.35;7.65;;;24.80;64.90;;;;;;5030194;28;20073;-67
2021/08/16 01:04:16;;;;;;;30.55;5.38;;;24.40;66.60;;;;;;5029910;28;20049;-67
2021/08/16 01:07:20;;;;;;;23.77;5.03;;;24.40;66.90;;;;;;5029657;28;20048;-67
2021/08/16 01:10:29;;;;;;;22.10;5.30;;;24.20;70.40;;;;;;5029960;28;20060;-67
2021/08/16 01:13:34;;;;;;;24.95;5.35;;;23.90;70.20;;;;;;5029902;28;20048;-68
2021/08/16 01:16:38;;;;;;;20.40;4.90;;;23.80;71.60;;;;;;5029040;28;20420;-68
2021/08/16 01:19:42;;;;;;;25.58;5.63;;;23.70;70.60;;;;;;5029414;28;20048;-68
2021/08/16 01:22:47;;;;;;;24.95;4.72;;;23.60;70.50;;;;;;5029931;28;20076;-68
2021/08/16 01:25:51;;;;;;;31.50;5.68;;;23.50;70.00;;;;;;5029130;28;20045;-68
2021/08/16 01:28:55;;;;;;;34.85;5.53;;;23.60;70.20;;;;;;5029411;28;20503;-68
2021/08/16 01:32:00;;;;;;;18.77;5.28;;;23.80;70.10;;;;;;5029787;28;20048;-67
2021/08/16 01:35:05;;;;;;;30.40;5.65;;;23.90;70.00;;;;;;5030183;28;20037;-67
2021/08/16 01:38:09;;;;;;;22.27;5.03;;;23.80;70.40;;;;;;5047454;28;20048;-68
2021/08/16 01:41:13;;;;;;;30.85;6.00;;;23.70;70.60;;;;;;5041922;28;20067;-68
2021/08/16 01:44:19;;;;;;;22.25;5.28;;;23.60;70.90;;;;;;5049516;28;20490;-68
2021/08/16 01:47:24;;;;;;;19.35;5.05;;;23.50;71.00;;;;;;5049901;28;20051;-68
2021/08/16 01:50:28;;;;;;;19.60;4.53;;;23.70;70.60;;;;;;5049441;28;20048;-68
2021/08/16 01:53:33;;;;;;;23.23;5.00;;;23.80;70.70;;;;;;5052599;28;20040;-68
2021/08/16 01:56:38;;;;;;;20.20;4.97;;;23.90;70.20;;;;;;5053540;28;20044;-67
2021/08/16 01:59:42;;;;;;;21.70;5.38;;;24.00;69.80;;;;;;5053201;28;20222;-67
2021/08/16 02:02:46;;;;;;;21.13;5.38;;;24.20;69.00;;;;;;5053681;28;20052;-67
2021/08/16 02:05:50;;;;;;;28.08;5.13;;;24.10;69.90;;;;;;5053313;28;20047;-68
2021/08/16 02:08:55;;;;;;;26.25;5.43;;;24.10;70.30;;;;;;5053072;28;20044;-67
2021/08/16 02:11:59;;;;;;;28.83;6.45;;;24.00;70.70;;;;;;5033446;28;20052;-68
2021/08/16 02:15:06;;;;;;;25.55;5.72;;;23.90;70.80;;;;;;5033315;28;20045;-68
2021/08/16 02:18:10;;;;;;;23.05;5.80;;;23.90;71.40;;;;;;5032681;28;20477;-67
2021/08/16 02:21:14;;;;;;;25.25;5.85;;;23.90;72.40;;;;;;5033181;28;20053;-67
2021/08/16 02:24:19;;;;;;;15.68;5.28;;;23.80;73.30;;;;;;5032876;28;20052;-67
2021/08/16 02:27:25;;;;;;;22.17;5.07;;;23.80;73.10;;;;;;5033077;28;20124;-67
2021/08/16 02:30:30;;;;;;;14.68;5.22;;;23.90;73.40;;;;;;5032706;28;20407;-68
2021/08/16 02:33:34;;;;;;;20.77;5.30;;;23.80;73.60;;;;;;5032754;28;20040;-67
2021/08/16 02:36:38;;;;;;;28.83;5.80;;;23.80;74.10;;;;;;5032634;28;20045;-68
2021/08/16 02:39:43;;;;;;;18.75;4.97;;;23.70;75.00;;;;;;5032193;28;20060;-67
2021/08/16 02:42:47;;;;;;;24.80;6.22;;;23.70;76.30;;;;;;5032603;28;20044;-67
2021/08/16 02:45:51;;;;;;;22.23;5.78;;;23.70;77.30;;;;;;5050581;28;20126;-67
2021/08/16 02:48:55;;;;;;;21.45;5.10;;;23.40;78.70;;;;;;5051640;28;20060;-67
2021/08/16 02:51:59;;;;;;;19.50;5.50;;;23.20;78.50;;;;;;5052429;28;20052;-67
2021/08/16 02:55:04;;;;;;;19.60;5.53;;;23.10;78.30;;;;;;5052120;28;20514;-68
2021/08/16 02:58:08;;;;;;;18.88;5.82;;;23.10;79.30;;;;;;5050772;28;20104;-68
2021/08/16 03:01:12;;;;;;;20.48;5.07;;;23.10;79.80;;;;;;5051189;28;20052;-68
2021/08/16 03:04:16;;;;;;;20.48;5.43;;;23.10;79.80;;;;;;5051273;28;20052;-68
2021/08/16 03:07:20;;;;;;;20.98;5.55;;;23.20;79.70;;;;;;5052291;28;20060;-68
2021/08/16 03:10:25;;;;;;;23.50;6.43;;;23.20;79.60;;;;;;5051779;28;20052;-68
2021/08/16 03:13:29;;;;;;;21.30;5.53;;;23.10;80.50;;;;;;5052115;28;20044;-68
2021/08/16 03:16:33;;;;;;;18.80;5.38;;;23.10;81.50;;;;;;5062738;28;20067;-68
2021/08/16 03:19:38;;;;;;;21.08;5.72;;;23.10;82.30;;;;;;5051461;28;20479;-67
2021/08/16 03:22:42;;;;;;;15.80;5.15;;;23.20;83.00;;;;;;5052001;28;20060;-68
2021/08/16 03:25:46;;;;;;;17.05;5.05;;;23.10;82.90;;;;;;5052037;28;20036;-68
2021/08/16 03:28:50;;;;;;;20.88;5.70;;;23.20;83.10;;;;;;5051833;28;20040;-67
2021/08/16 03:31:54;;;;;;;20.38;5.30;;;23.30;82.80;;;;;;5051840;28;20491;-67
2021/08/16 03:34:58;;;;;;;17.13;4.90;;;23.40;82.30;;;;;;5051838;28;20052;-67
2021/08/16 03:38:03;;;;;;;15.93;4.93;;;23.40;81.30;;;;;;5061888;28;20052;-68
2021/08/16 03:41:06;;;;;;;19.42;5.18;;;23.50;81.30;;;;;;5051423;28;20048;-67
2021/08/16 03:44:11;;;;;;;15.75;5.10;;;23.60;81.50;;;;;;5051269;28;20040;-67
2021/08/16 03:47:15;;;;;;;16.83;5.53;;;23.70;81.80;;;;;;5051203;28;20051;-67
2021/08/16 03:50:19;;;;;;;16.35;5.68;;;23.60;82.40;;;;;;5051126;28;20064;-67
2021/08/16 03:53:24;;;;;;;17.33;5.63;;;23.60;82.50;;;;;;5051291;28;20069;-68
2021/08/16 03:56:28;;;;;;;24.10;5.97;;;23.60;83.30;;;;;;5051225;28;20052;-67
2021/08/16 03:59:33;;;;;;;17.83;4.80;;;23.50;83.20;;;;;;5050286;28;20040;-68
2021/08/16 04:02:41;;;;;;;18.58;5.28;;;23.50;82.90;;;;;;5051107;28;20036;-67
2021/08/16 04:05:46;;;;;;;19.98;4.93;;;23.60;82.70;;;;;;5051111;28;20242;-68
2021/08/16 04:08:51;;;;;;;16.05;5.15;;;23.60;83.50;;;;;;5050478;28;20044;-67
2021/08/16 04:11:55;;;;;;;18.25;5.10;;;23.40;83.90;;;;;;5050648;28;20044;-68
2021/08/16 04:15:03;;;;;;;18.70;5.80;;;23.10;85.30;;;;;;5050447;28;20051;-68
2021/08/16 04:18:08;;;;;;;15.38;5.70;;;22.90;86.80;;;;;;5050414;28;20048;-68
2021/08/16 04:21:12;;;;;;;22.58;6.35;;;22.80;87.30;;;;;;5050196;28;20582;-68
2021/08/16 04:24:17;;;;;;;16.05;5.72;;;22.80;87.60;;;;;;5050646;28;20044;-68
2021/08/16 04:27:22;;;;;;;17.65;5.28;;;22.80;87.60;;;;;;5050677;28;20067;-69
2021/08/16 04:30:26;;;;;;;15.70;4.60;;;22.90;87.10;;;;;;5049931;28;20056;-69
2021/08/16 04:33:30;;;;;;;20.05;5.72;;;23.10;87.20;;;;;;5050648;28;20387;-68
2021/08/16 04:36:35;;;;;;;23.58;6.43;;;23.00;87.30;;;;;;5047180;28;20422;-68
2021/08/16 04:39:38;;;;;;;16.85;5.07;;;23.00;87.20;;;;;;5033307;28;20487;-68
2021/08/16 04:42:43;;;;;;;23.02;5.60;;;23.20;86.10;;;;;;5050615;28;20040;-68
2021/08/16 04:45:47;;;;;;;16.52;5.22;;;23.30;85.10;;;;;;5050385;28;20063;-68
2021/08/16 04:48:51;;;;;;;22.52;5.70;;;23.50;84.20;;;;;;5049166;28;20044;-69
2021/08/16 04:51:56;;;;;;;11.65;4.63;;;23.50;83.60;;;;;;5049874;28;20040;-68
2021/08/16 04:55:00;;;;;;;24.25;5.45;;;23.70;83.40;;;;;;5030337;28;20040;-68
2021/08/16 04:58:04;;;;;;;19.02;5.60;;;23.70;83.10;;;;;;5029833;28;20048;-68
2021/08/16 05:01:08;;;;;;;22.10;5.03;;;23.70;82.30;;;;;;5029507;28;20044;-67
2021/08/16 05:04:12;;;;;;;22.67;5.88;;;23.70;81.50;;;;;;5030257;28;20044;-67
2021/08/16 05:07:16;;;;;;;27.35;5.40;;;23.70;81.30;;;;;;5030120;28;20053;-67
2021/08/16 05:10:21;;;;;;;16.98;5.15;;;23.70;81.00;;;;;;5038900;28;20052;-68
2021/08/16 05:13:25;;;;;;;20.50;5.47;;;23.70;81.90;;;;;;5049356;28;20047;-67
2021/08/16 05:16:30;;;;;;;19.65;5.63;;;23.60;83.60;;;;;;5049662;28;20039;-67
2021/08/16 05:19:38;;;;;;;19.35;6.63;;;22.70;88.60;;;;;;5049550;28;20387;-67
2021/08/16 05:22:46;;;;;;;19.33;6.53;;;22.20;91.00;;;;;;5049678;28;20040;-66
2021/08/16 05:25:50;;;;;;;23.42;6.95;;;22.00;92.50;;;;;;5049962;28;20060;-67
2021/08/16 05:28:54;;;;;;;14.48;5.70;;;22.20;93.40;;;;;;5049038;28;20048;-67
2021/08/16 05:31:58;;;;;;;26.77;6.68;;;23.80;92.00;;;;;;5049431;28;20198;-68
2021/08/16 05:35:04;;;;;;;18.67;5.72;;;25.20;89.60;;;;;;5049881;28;20399;-67
2021/08/16 05:38:10;;;;;;;17.00;5.35;;;26.10;85.30;;;;;;5049268;28;20044;-67
2021/08/16 05:41:14;;;;;;;17.83;6.10;;;27.00;82.80;;;;;;5048612;28;20043;-67
2021/08/16 05:44:18;;;;;;;18.67;5.40;;;28.00;79.60;;;;;;5050186;28;20044;-67
2021/08/16 05:47:22;;;;;;;13.02;5.30;;;27.80;78.80;;;;;;5049492;28;20064;-67
2021/08/16 05:50:26;;;;;;;21.33;5.55;;;28.00;78.40;;;;;;5049208;28;20052;-67
2021/08/16 05:53:30;;;;;;;10.85;4.72;;;28.90;76.70;;;;;;5049589;28;20499;-68
2021/08/16 05:56:36;;;;;;;13.43;5.00;;;29.90;74.90;;;;;;5049493;28;20048;-68
2021/08/16 05:59:41;;;;;;;24.05;5.25;;;30.60;73.20;;;;;;5049300;28;20044;-68
2021/08/16 06:02:46;;;;;;;16.58;4.93;;;31.50;70.80;;;;;;5049144;28;20040;-68
2021/08/16 06:05:50;;;;;;;12.15;5.03;;;31.60;70.00;;;;;;5049507;28;20052;-68
2021/08/16 06:08:55;;;;;;;23.02;5.03;;;31.70;69.60;;;;;;5049389;28;20044;-68
2021/08/16 06:12:00;;;;;;;19.60;6.28;;;31.70;68.80;;;;;;5049019;28;20059;-68
2021/08/16 06:15:05;;;;;;;16.73;4.95;;;31.60;69.00;;;;;;5049246;28;20044;-68
2021/08/16 06:18:09;;;;;;;25.88;6.50;;;31.30;70.00;;;;;;5047705;28;20043;-68
2021/08/16 06:21:13;;;;;;;22.58;5.57;;;31.60;68.60;;;;;;5049129;28;20060;-68
2021/08/16 06:24:17;;;;;;;23.13;6.40;;;31.70;67.70;;;;;;5049182;28;20407;-68
2021/08/16 06:27:21;;;;;;;13.13;4.15;;;31.90;66.20;;;;;;5048943;28;20498;-68
2021/08/16 06:30:25;;;;;;;19.15;5.53;;;32.30;64.80;;;;;;5049065;28;20044;-68
2021/08/16 06:33:29;;;;;;;17.17;4.88;;;32.50;65.30;;;;;;5048804;28;20506;-68
2021/08/16 06:36:40;;;;;;;17.75;5.15;;;33.20;64.70;;;;;;5030188;28;20049;-67
2021/08/16 06:39:46;;;;;;;14.23;4.32;;;33.60;63.90;;;;;;5031487;28;20029;-68
2021/08/16 06:42:50;;;;;;;17.48;4.65;;;34.30;62.80;;;;;;5043056;28;20048;-68
2021/08/16 06:45:55;;;;;;;22.65;4.95;;;33.00;62.60;;;;;;5033218;28;20048;-67
2021/08/16 06:48:59;;;;;;;16.70;4.90;;;32.80;64.10;;;;;;5032098;28;20048;-67
2021/08/16 06:52:05;;;;;;;16.77;5.65;;;31.80;67.40;;;;;;5032237;28;20049;-67
2021/08/16 06:55:10;;;;;;;19.70;5.32;;;30.20;70.00;;;;;;5032401;28;20044;-67
2021/08/16 06:58:15;;;;;;;16.77;5.38;;;29.00;71.90;;;;;;5031902;28;20040;-67
2021/08/16 07:01:25;;;;;;;17.15;5.70;;;28.80;73.90;;;;;;5032116;28;20044;-68
2021/08/16 07:04:29;;;;;;;13.40;4.40;;;29.10;73.40;;;;;;5032217;28;20041;-68
2021/08/16 07:07:33;;;;;;;14.70;5.07;;;30.90;70.00;;;;;;5030986;28;20052;-68
2021/08/16 07:10:38;;;;;;;18.10;4.78;;;32.20;67.80;;;;;;5031007;28;20503;-67
2021/08/16 07:13:42;;;;;;;13.38;4.95;;;32.90;67.00;;;;;;5031617;28;20044;-68
2021/08/16 07:16:46;;;;;;;14.43;4.25;;;34.50;64.90;;;;;;5032323;28;20047;-68
2021/08/16 07:19:52;;;;;;;16.88;5.22;;;36.10;62.60;;;;;;5031418;28;20066;-68
2021/08/16 07:22:56;;;;;;;15.75;4.32;;;37.30;60.60;;;;;;5031667;28;20113;-68
2021/08/16 07:26:01;;;;;;;14.88;4.75;;;38.10;59.60;;;;;;5032057;28;20049;-68
2021/08/16 07:29:05;;;;;;;19.88;4.55;;;38.10;58.90;;;;;;5031825;28;20048;-69
2021/08/16 07:32:09;;;;;;;18.67;4.55;;;38.70;57.90;;;;;;5030953;28;20063;-69
2021/08/16 07:35:15;;;;;;;21.70;4.93;;;37.90;57.00;;;;;;5032783;28;20045;-68
2021/08/16 07:38:19;;;;;;;12.85;4.68;;;38.30;57.60;;;;;;5031213;28;20040;-68
2021/08/16 07:41:23;;;;;;;14.50;3.78;;;38.10;57.50;;;;;;5032546;28;20055;-68
2021/08/16 07:44:27;;;;;;;14.35;4.13;;;38.00;57.60;;;;;;5041088;28;20112;-67
2021/08/16 07:47:31;;;;;;;17.73;4.30;;;38.70;57.00;;;;;;5052520;28;20044;-67
2021/08/16 07:50:35;;;;;;;15.07;4.47;;;35.60;59.00;;;;;;5051712;28;20051;-67
2021/08/16 07:53:41;;;;;;;17.98;4.75;;;35.90;60.30;;;;;;5052243;28;20104;-67
2021/08/16 07:56:49;;;;;;;20.67;4.55;;;37.50;58.70;;;;;;5052608;28;20044;-67
2021/08/16 07:59:56;;;;;;;18.00;4.60;;;38.90;57.40;;;;;;5051493;28;20578;-68
2021/08/16 08:03:01;;;;;;;13.40;4.78;;;39.60;56.50;;;;;;5052160;28;20048;-68
2021/08/16 08:06:06;;;;;;;14.90;4.47;;;40.90;54.70;;;;;;5052219;28;20052;-67
2021/08/16 08:09:11;;;;;;;20.63;4.90;;;39.00;55.20;;;;;;5031706;28;20504;-67
2021/08/16 08:12:17;;;;;;;14.60;4.60;;;39.30;55.40;;;;;;5039757;28;20395;-67
2021/08/16 08:15:21;;;;;;;15.30;3.90;;;39.80;55.80;;;;;;5051723;28;20062;-67
2021/08/16 08:18:27;;;;;;;13.50;4.78;;;38.70;55.50;;;;;;5050073;28;20052;-67
2021/08/16 08:21:30;;;;;;;18.70;5.25;;;37.90;57.10;;;;;;5039416;28;20056;-67
2021/08/16 08:24:34;;;;;;;17.77;4.35;;;37.00;58.10;;;;;;5051272;28;20052;-67
2021/08/16 08:27:40;;;;;;;22.10;4.93;;;36.10;59.20;;;;;;5051431;28;20067;-67
2021/08/16 08:30:45;;;;;;;17.48;4.78;;;35.50;59.40;;;;;;5051137;28;20056;-67
2021/08/16 08:33:49;;;;;;;18.38;4.85;;;36.60;59.00;;;;;;5051113;28;20048;-66
2021/08/16 08:36:53;;;;;;;23.20;4.70;;;38.00;57.50;;;;;;5051697;28;20040;-68
2021/08/16 08:39:57;;;;;;;18.92;4.90;;;36.60;57.90;;;;;;5050676;28;20056;-67
2021/08/16 08:43:02;;;;;;;21.52;4.88;;;35.50;59.20;;;;;;5044050;28;20040;-67
2021/08/16 08:46:08;;;;;;;19.27;4.63;;;37.40;56.10;;;;;;5048641;28;20047;-68
2021/08/16 08:49:14;;;;;;;26.15;5.72;;;37.00;56.40;;;;;;5049992;28;20044;-67
2021/08/16 08:52:18;;;;;;;22.20;4.68;;;37.90;55.30;;;;;;5049766;28;20048;-67
2021/08/16 08:55:23;;;;;;;22.17;4.35;;;36.70;56.50;;;;;;5044495;28;20125;-68
2021/08/16 08:58:28;;;;;;;32.40;5.38;;;37.50;55.60;;;;;;5049083;28;20043;-68
2021/08/16 09:01:33;;;;;;;23.48;5.13;;;38.90;53.40;;;;;;5048489;28;20056;-67
2021/08/16 09:04:53;;;;;;;22.38;5.10;;;37.40;55.60;;;;;;5051664;28;20112;-67
2021/08/16 09:07:59;;;;;;;20.30;4.53;;;37.30;54.60;;;;;;5038933;28;20391;-67
2021/08/16 09:11:14;;;;;;;24.90;4.93;;;36.50;55.70;;;;;;5040039;28;20040;-70
2021/08/16 09:14:20;;;;;;;27.15;5.13;;;37.10;55.50;;;;;;5040383;28;20384;-67
2021/08/16 09:17:33;;;;;;;28.13;5.45;;;38.10;53.70;;;;;;5031750;28;20044;-67
2021/08/16 09:20:37;;;;;;;23.23;4.57;;;37.60;54.10;;;;;;5029590;28;20404;-68
2021/08/16 09:23:45;;;;;;;28.33;4.75;;;36.90;55.60;;;;;;5030054;28;20492;-68
2021/08/16 09:26:49;;;;;;;19.73;4.85;;;38.60;54.00;;;;;;5030146;28;20052;-67
2021/08/16 09:29:54;;;;;;;30.58;5.03;;;38.30;53.40;;;;;;5029630;28;20404;-68
2021/08/16 09:32:58;;;;;;;21.80;4.47;;;37.40;55.20;;;;;;5029672;28;20060;-68
2021/08/16 09:36:03;;;;;;;28.27;5.30;;;35.90;56.60;;;;;;5029391;28;20096;-67
2021/08/16 09:39:20;;;;;;;31.73;4.63;;;35.70;56.30;;;;;;5029690;28;20064;-68
2021/08/16 09:42:24;;;;;;;21.48;5.10;;;36.40;56.50;;;;;;5029627;28;20048;-66
2021/08/16 09:45:31;;;;;;;24.67;4.90;;;38.00;54.50;;;;;;5046968;28;20495;-68
2021/08/16 09:48:37;;;;;;;17.80;4.55;;;39.90;53.30;;;;;;5049263;28;20044;-67
2021/08/16 09:51:41;;;;;;;27.95;5.32;;;41.50;51.90;;;;;;5049516;28;20068;-67
2021/08/16 09:54:47;;;;;;;19.30;4.45;;;41.30;51.20;;;;;;5049493;28;20047;-68
2021/08/16 09:57:51;;;;;;;22.45;4.63;;;41.20;51.90;;;;;;5049060;28;20051;-67
2021/08/16 10:00:56;;;;;;;19.48;5.18;;;39.40;54.20;;;;;;5049426;28;20044;-68
2021/08/16 10:04:04;;;;;;;22.02;5.75;;;38.70;55.40;;;;;;5048766;28;20048;-68
2021/08/16 10:07:10;;;;;;;21.65;5.13;;;38.10;55.20;;;;;;5049634;28;20044;-68
2021/08/16 10:10:16;;;;;;;23.98;4.47;;;39.20;55.10;;;;;;5049401;28;20048;-67
2021/08/16 10:13:21;;;;;;;27.50;5.32;;;41.70;53.10;;;;;;5049923;28;20506;-67
2021/08/16 10:16:39;;;;;;;25.42;5.45;;;40.10;53.40;;;;;;5052880;28;20055;-68
2021/08/16 10:19:44;;;;;;;17.75;4.65;;;42.10;52.70;;;;;;5052830;28;20040;-68
2021/08/16 10:22:48;;;;;;;14.70;4.57;;;40.80;53.00;;;;;;5051683;28;20060;-67
2021/08/16 10:25:55;;;;;;;18.75;4.38;;;42.50;52.70;;;;;;5052983;28;20419;-68
2021/08/16 10:29:05;;;;;;;21.10;3.92;;;42.50;52.60;;;;;;5052663;28;20048;-68
2021/08/16 10:32:20;;;;;;;27.08;4.97;;;43.20;52.20;;;;;;5053004;28;20051;-68
2021/08/16 10:35:25;;;;;;;31.20;4.78;;;40.40;52.70;;;;;;5052045;28;20115;-67
2021/08/16 10:38:29;;;;;;;17.27;4.75;;;40.90;53.50;;;;;;5033020;28;20048;-68
2021/08/16 10:41:39;;;;;;;21.38;5.10;;;42.50;52.40;;;;;;5032148;28;20049;-68
2021/08/16 10:44:49;;;;;;;24.52;4.25;;;44.80;51.10;;;;;;5042802;28;20047;-68
2021/08/16 10:48:07;;;;;;;19.40;4.15;;;45.10;50.20;;;;;;5052455;28;20043;-67
2021/08/16 10:51:14;;;;;;;19.48;4.75;;;43.30;51.80;;;;;;5052269;28;20036;-67
2021/08/16 10:54:27;;;;;;;21.17;4.72;;;41.60;52.70;;;;;;5052225;28;20498;-67
2021/08/16 10:57:33;;;;;;;22.17;4.88;;;38.40;55.30;;;;;;5052105;28;20048;-68
2021/08/16 11:00:39;;;;;;;16.77;4.97;;;40.10;55.10;;;;;;5052260;28;20376;-68
2021/08/16 11:03:55;;;;;;;19.73;5.18;;;41.30;54.40;;;;;;5052191;28;20052;-68
2021/08/16 11:07:04;;;;;;;26.23;4.47;;;43.30;52.30;;;;;;5050792;28;20060;-67
2021/08/16 11:10:10;;;;;;;24.92;5.40;;;44.70;51.20;;;;;;5032046;28;20061;-68
2021/08/16 11:13:21;;;;;;;17.70;4.72;;;44.50;50.50;;;;;;5032042;28;20056;-68
2021/08/16 11:16:25;;;;;;;23.33;4.57;;;44.30;50.80;;;;;;5031800;28;20041;-68
2021/08/16 11:19:44;;;;;;;18.73;4.40;;;43.80;50.90;;;;;;5030555;28;20045;-68
2021/08/16 11:22:54;;;;;;;22.58;4.57;;;44.70;50.70;;;;;;5031932;28;20044;-68
2021/08/16 11:26:01;;;;;;;17.20;4.35;;;41.20;51.50;;;;;;5030522;28;20052;-68
2021/08/16 11:29:06;;;;;;;21.45;4.15;;;42.30;53.50;;;;;;5031747;28;20056;-67
2021/08/16 11:32:20;;;;;;;19.13;5.07;;;42.40;52.70;;;;;;5031606;28;20367;-68
2021/08/16 11:35:27;;;;;;;16.60;4.13;;;41.40;54.80;;;;;;5019310;28;20207;-69
2021/08/16 11:38:32;;;;;;;23.38;4.80;;;41.50;53.30;;;;;;5031369;28;20049;-67
2021/08/16 11:41:36;;;;;;;23.10;5.43;;;42.70;51.90;;;;;;5047850;28;20056;-69
2021/08/16 11:44:40;;;;;;;17.50;3.92;;;45.10;51.90;;;;;;5052456;28;20052;-66
2021/08/16 11:47:50;;;;;;;19.92;4.25;;;47.30;50.70;;;;;;5051745;28;20206;-66
2021/08/16 11:50:58;;;;;;;20.70;4.40;;;45.00;51.00;;;;;;5052093;28;20044;-66
2021/08/16 11:54:02;;;;;;;24.20;5.47;;;42.60;52.40;;;;;;5052182;28;20044;-67
2021/08/16 11:57:07;;;;;;;15.60;4.20;;;42.00;53.00;;;;;;5051214;28;20104;-67
2021/08/16 12:00:12;;;;;;;20.65;4.18;;;42.10;52.60;;;;;;5051349;28;20040;-68
2021/08/16 12:03:16;;;;;;;15.32;4.28;;;42.30;53.80;;;;;;5050348;28;20044;-66
2021/08/16 12:06:21;;;;;;;21.13;5.35;;;40.10;53.50;;;;;;5051231;28;20388;-65
2021/08/16 12:09:37;;;;;;;19.48;4.43;;;41.90;54.10;;;;;;5050744;28;20048;-67
2021/08/16 12:12:42;;;;;;;22.27;5.50;;;42.10;53.90;;;;;;5051105;28;20048;-65
2021/08/16 12:15:54;;;;;;;15.52;3.83;;;42.50;52.90;;;;;;5050961;28;20040;-67
2021/08/16 12:19:02;;;;;;;16.33;4.35;;;42.50;53.20;;;;;;5050789;28;20036;-66
2021/08/16 12:22:11;;;;;;;19.67;4.50;;;43.80;52.10;;;;;;5050627;28;20068;-67
2021/08/16 12:24:59;;;;;;;15.75;4.05;;;44.40;51.60;;;;;;5067092;28;20383;-55
2021/08/16 12:27:37;;;;;;;23.25;4.20;;;45.20;51.10;;;;;;5066565;28;20895;-52
2021/08/16 12:30:16;;;;;;;21.13;4.85;;;43.00;52.30;;;;;;5087327;28;20748;-49
2021/08/16 12:33:07;;;;;;;19.38;5.68;;;44.30;51.90;;;;;;5107392;27;20372;-49
2021/08/16 12:35:57;;;;;;;14.98;4.72;;;42.50;52.60;;;;;;5128034;27;20362;-52
2021/08/16 12:38:34;;;;;;;21.70;4.72;;;42.40;53.40;;;;;;5066532;28;20867;-47
2021/08/16 12:41:21;;;;;;;24.92;4.75;;;41.00;53.70;;;;;;5106914;27;20399;-52
2021/08/16 12:44:02;;;;;;;21.42;5.47;;;39.60;56.30;;;;;;5066766;28;20383;-48
2021/08/16 12:46:40;;;;;;;23.27;5.13;;;38.10;58.30;;;;;;5106898;27;20372;-47
2021/08/16 12:49:20;;;;;;;15.82;4.65;;;38.60;57.30;;;;;;5067579;27;20399;-50
2021/08/16 12:52:00;;;;;;;19.83;4.60;;;38.80;56.60;;;;;;5087300;27;20388;-53
2021/08/16 12:54:37;;;;;;;15.63;4.60;;;41.20;54.70;;;;;;5066933;28;20375;-52
2021/08/16 12:57:17;;;;;;;17.20;4.68;;;43.40;53.10;;;;;;5066275;28;20786;-49
2021/08/16 12:59:56;;;;;;;17.15;4.43;;;44.70;52.00;;;;;;5127741;27;20180;-52
2021/08/16 13:02:34;;;;;;;28.60;5.82;;;41.30;52.70;;;;;;5107065;27;20387;-50
2021/08/16 13:05:12;;;;;;;24.00;5.45;;;37.90;57.80;;;;;;5067451;27;20379;-48
2021/08/16 13:07:50;;;;;;;18.83;4.05;;;39.00;57.80;;;;;;5086730;27;20373;-50
2021/08/16 13:10:29;;;;;;;29.13;5.47;;;38.00;58.90;;;;;;5066885;28;20412;-49
2021/08/16 13:13:08;;;;;;;23.45;4.75;;;37.80;58.40;;;;;;5003562;28;20244;-52
2021/08/16 13:15:48;;;;;;;25.58;5.88;;;38.20;59.00;;;;;;5107476;27;20913;-53
2021/08/16 13:18:27;;;;;;;22.77;6.75;;;36.60;60.00;;;;;;5106792;27;20395;-50
2021/08/16 13:21:08;;;;;;;14.07;4.65;;;35.40;62.40;;;;;;5127638;27;20662;-52
2021/08/16 13:23:47;;;;;;;21.77;5.38;;;36.10;62.50;;;;;;5066669;28;20383;-52
2021/08/16 13:26:26;;;;;;;23.33;5.05;;;36.80;60.90;;;;;;5066560;27;20745;-52
2021/08/16 13:29:04;;;;;;;18.65;4.43;;;37.50;60.50;;;;;;5066739;28;20893;-53
2021/08/16 13:31:42;;;;;;;24.33;6.25;;;35.90;62.70;;;;;;5067247;28;20393;-48
2021/08/16 13:34:47;;;;;;;29.85;6.00;;;35.30;64.80;;;;;;5067305;28;20036;-53
2021/08/16 13:37:25;;;;;;;20.75;5.75;;;35.50;63.70;;;;;;5147916;27;20589;-48
2021/08/16 13:40:03;;;;;;;25.27;6.13;;;35.80;64.50;;;;;;5066647;28;20379;-48
2021/08/16 13:42:41;;;;;;;28.88;5.85;;;35.90;64.30;;;;;;5066542;28;20371;-46
2021/08/16 13:45:45;;;;;;;20.83;4.95;;;36.00;64.10;;;;;;5066606;28;20029;-50
2021/08/16 13:48:24;;;;;;;25.55;5.93;;;36.90;63.80;;;;;;5066249;27;20378;-51
2021/08/16 13:51:01;;;;;;;22.55;5.70;;;37.30;62.70;;;;;;5066782;28;20379;-50
2021/08/16 13:53:39;;;;;;;22.98;6.07;;;36.10;63.30;;;;;;5085725;28;20772;-48
2021/08/16 13:56:18;;;;;;;16.65;4.75;;;36.80;63.50;;;;;;5087041;27;20748;-52
2021/08/16 13:58:56;;;;;;;22.13;4.95;;;37.40;62.30;;;;;;5122578;27;20376;-50
2021/08/16 14:01:36;;;;;;;25.40;5.90;;;37.40;60.80;;;;;;5066845;28;20415;-51
2021/08/16 14:04:13;;;;;;;19.90;5.78;;;37.10;61.20;;;;;;5066771;28;20375;-54
2021/08/16 14:06:51;;;;;;;17.45;5.93;;;36.20;61.70;;;;;;5066749;28;20150;-51
2021/08/16 14:09:28;;;;;;;23.90;6.45;;;36.10;62.10;;;;;;5066583;28;20375;-49
2021/08/16 14:12:07;;;;;;;23.45;5.90;;;36.10;63.20;;;;;;5107168;27;20383;-49
2021/08/16 14:14:45;;;;;;;22.58;5.45;;;35.40;65.80;;;;;;5067163;28;20371;-52
2021/08/16 14:17:24;;;;;;;22.55;5.32;;;35.60;65.90;;;;;;5066903;28;20884;-52
2021/08/16 14:20:03;;;;;;;18.80;4.93;;;35.70;65.80;;;;;;5127724;27;20177;-53
2021/08/16 14:22:41;;;;;;;23.10;5.55;;;36.10;65.10;;;;;;5066971;28;20387;-50
2021/08/16 14:25:20;;;;;;;17.70;5.22;;;36.60;60.80;;;;;;5066964;27;20398;-53
2021/08/16 14:27:58;;;;;;;17.77;5.32;;;35.50;61.20;;;;;;5127592;27;20192;-51
2021/08/16 14:30:37;;;;;;;23.05;5.32;;;35.60;61.70;;;;;;5128002;27;20398;-48
2021/08/16 14:33:15;;;;;;;26.00;5.60;;;35.70;61.50;;;;;;5066750;28;20382;-46
2021/08/16 14:35:56;;;;;;;21.23;5.40;;;35.50;61.40;;;;;;5067008;28;20375;-53
2021/08/16 14:38:33;;;;;;;21.60;5.75;;;35.50;61.20;;;;;;5066228;28;20382;-51
2021/08/16 14:41:13;;;;;;;25.80;5.57;;;36.20;60.50;;;;;;5066994;28;20383;-52
2021/08/16 14:44:17;;;;;;;36.35;6.72;;;36.30;60.70;;;;;;5066664;28;20614;-50
2021/08/16 14:46:57;;;;;;;32.65;6.43;;;37.10;60.00;;;;;;5107357;27;20738;-51
2021/08/16 14:49:34;;;;;;;30.70;6.43;;;36.10;61.20;;;;;;5066324;28;20378;-48
2021/08/16 14:52:12;;;;;;;30.33;6.68;;;36.80;61.40;;;;;;5066840;28;20383;-50
2021/08/16 14:54:50;;;;;;;29.42;6.47;;;37.20;61.00;;;;;;5066556;28;20387;-53
2021/08/16 14:57:28;;;;;;;28.05;6.07;;;37.20;60.90;;;;;;5107575;27;20380;-48
2021/08/16 15:00:07;;;;;;;31.17;6.95;;;37.40;61.10;;;;;;5066862;28;20379;-47
2021/08/16 15:02:45;;;;;;;28.65;6.25;;;37.20;61.40;;;;;;5066837;28;20371;-48
2021/08/16 15:05:24;;;;;;;23.15;5.70;;;37.30;61.40;;;;;;5066734;27;20599;-47
2021/08/16 15:08:01;;;;;;;33.33;6.82;;;37.20;61.50;;;;;;5066279;28;20375;-52
2021/08/16 15:10:38;;;;;;;24.83;6.05;;;36.90;61.70;;;;;;5066609;28;20135;-50
2021/08/16 15:13:16;;;;;;;38.28;7.00;;;36.90;62.20;;;;;;5066827;28;20375;-48
2021/08/16 15:15:54;;;;;;;25.45;6.55;;;36.20;62.70;;;;;;5066810;28;20375;-50
2021/08/16 15:18:33;;;;;;;21.35;5.75;;;36.00;63.00;;;;;;5066601;28;20744;-53
2021/08/16 15:21:10;;;;;;;26.38;6.80;;;36.00;63.30;;;;;;5066657;28;20382;-53
2021/08/16 15:23:49;;;;;;;22.52;5.65;;;36.10;63.60;;;;;;5066822;27;20378;-50